Terminal Aerodrome Forecast
Issued by NWS

Home | Current Version | Previous Version | Text Only | Print | Product List | Glossary On
Versions: 1 2 3 4 5 6 7 8 9 10 11 12 13 14 15 16 17 18 19 20 21 22 23 24 25 26 27 28 29 30 31 32 33 34 35 36 37 38 39 40 41 42 43 44 45 46 47 48 49 50
555
FTUS41 KALY 211954 AAB
TAFPSF
TAF AMD
KPSF 211954Z 2120/2218 VRB04KT P6SM SCT015 OVC030
      TEMPO 2120/2121 BKN035
     FM212100 25006KT P6SM SCT012 BKN035
     FM220000 VRB03KT P6SM OVC012
     FM220300 00000KT 3SM BR OVC008
     FM220600 00000KT 3/4SM BR OVC005
     FM221500 04004KT 5SM BR SCT005 OVC012=

USA.gov is the U.S. government's official web portal to all federal, state and local government web resources and services.